Aérodrome :
LOGIN :

S'inscrire | Disclaimer

   EN    FR    IT 

 










Légende :    VFR   VFR Marginal   IFR   IFR Intensif   IFR Très Intensif
Visi : 
Plafond : 
>= 8 km
>= 3000ft
5 à 8 km
1000 à 3000 ft
1500m à 5 km
500 à 1000 ft
800 à 1500m
200 à 500 ft
< 800m
< 200 ft
Symboles :   Orages  Brouillard  Fortes neiges  Fortes précipitations  Vent > 20 kt
SIGMETs :   Divers  Orages  Givrage  Turbulence  Onde Orograph.  Cendres Volcan.






- Altitude de l'aérodrome : 1487 ft
- Code IATA : MUC


EDDM - München Franz Josef Strauss

DERNIER METAR :
  • 142150Z 08012KT CAVOK 02/00 Q0999 NOSIG

METARs EXPIRÉS :
  • 142120Z 08012KT CAVOK 02/00 Q1000 NOSIG
  • 142050Z 07013KT CAVOK 02/00 Q1000 NOSIG
  • 142020Z 07008KT CAVOK 02/00 Q1000 NOSIG
  • 141950Z 06005KT CAVOK 02/M00 Q1001 NOSIG
  • 141920Z 05005KT 020V090 CAVOK 01/00 Q1001 NOSIG
  • 141850Z 06005KT 020V080 9999 FEW010 02/00 Q1001 NOSIG

TAF TAF EDDM
Valide du 14 à 18h jusqu'au 16 à 00h UTC


141700Z 1418/1524 08008KT 9999 FEW010
PROB40
TEMPO 1418/1423 BKN010
BECMG 1512/1514 27008KT
PROB30
TEMPO 1521/1524 BKN014



MET'MAP, la Météo Aéronautique d'un coup d'oeil ! - Copyright ORBIFLY Décembre 2007 - Disclaimer

ORBIFLY MET'MAP TEAM :

Programmation & Développement : Alexandra Zaïnal
Conception & Développement : Baudouin d'Aumeries
Co-Programmation & Développement : Marc-Olivier Méhu
Soutien technique & logistique : Manuel Goepfert

Contact : metmap@orbifly.com




SOURCES & CREDITS :

   NOAA